createdAt,value
2022-11-23T00:00:36.068Z,25.00
2022-11-23T00:03:05.524Z,26.53
2022-11-23T00:05:36.253Z,27.97
2022-11-23T00:08:07.171Z,31.10
2022-11-23T00:10:36.254Z,29.97
2022-11-23T00:13:05.356Z,40.70
2022-11-23T00:15:35.481Z,27.23
2022-11-23T00:18:04.911Z,29.97
2022-11-23T00:20:33.964Z,26.60
2022-11-23T00:23:03.030Z,26.63
2022-11-23T00:25:33.425Z,30.53
2022-11-23T00:28:02.477Z,29.37
2022-11-23T00:30:31.741Z,35.23
2022-11-23T00:33:00.790Z,27.43
2022-11-23T00:35:32.874Z,32.83
2022-11-23T00:38:03.741Z,30.17
2022-11-23T00:40:34.152Z,31.50
2022-11-23T00:43:03.234Z,22.37
2022-11-23T00:45:32.258Z,29.60
2022-11-23T00:48:01.411Z,28.07
2022-11-23T00:50:31.260Z,28.40
2022-11-23T00:53:00.453Z,32.43
2022-11-23T00:55:29.501Z,29.20
2022-11-23T00:58:00.820Z,21.13
2022-11-23T01:00:30.381Z,26.93
2022-11-23T01:02:59.595Z,31.10
2022-11-23T01:05:30.311Z,22.83
2022-11-23T01:08:01.773Z,27.77
2022-11-23T01:10:31.359Z,27.87
2022-11-23T01:13:02.777Z,29.77
2022-11-23T01:15:31.806Z,25.77
2022-11-23T01:18:00.863Z,27.33
2022-11-23T01:20:29.934Z,25.07
2022-11-23T01:22:59.073Z,26.20
2022-11-23T01:25:28.161Z,27.43
2022-11-23T01:28:02.140Z,27.77
2022-11-23T01:30:31.461Z,29.10
2022-11-23T01:33:00.532Z,25.17
2022-11-23T01:35:30.258Z,26.03
2022-11-23T01:38:00.088Z,27.80
2022-11-23T01:40:29.208Z,27.77
2022-11-23T01:43:00.592Z,26.20
2022-11-23T01:45:37.824Z,29.83
2022-11-23T01:48:12.672Z,21.47
2022-11-23T01:50:43.539Z,27.83
2022-11-23T01:53:13.235Z,26.90
2022-11-23T01:55:43.569Z,21.53
2022-11-23T01:58:15.732Z,29.13
2022-11-23T02:00:47.089Z,29.43
2022-11-23T02:03:19.798Z,23.97
2022-11-23T02:05:53.160Z,23.43
2022-11-23T02:08:22.415Z,20.00
2022-11-23T02:10:51.564Z,27.30
2022-11-23T02:13:20.813Z,24.50
2022-11-23T02:15:52.216Z,29.53
2022-11-23T02:18:24.666Z,26.23
2022-11-23T02:20:57.369Z,25.43
2022-11-23T02:23:35.563Z,29.40
2022-11-23T02:26:09.125Z,29.50
2022-11-23T02:28:43.070Z,31.87
2022-11-23T02:31:12.423Z,20.30
2022-11-23T02:33:42.213Z,24.10
2022-11-23T02:36:36.968Z,24.37
2022-11-23T02:39:12.864Z,24.30
2022-11-23T02:41:45.474Z,19.77
2022-11-23T02:44:26.800Z,26.40
2022-11-23T02:46:56.134Z,24.13
2022-11-23T02:49:25.292Z,20.50
2022-11-23T02:51:54.418Z,26.33
2022-11-23T02:54:23.512Z,28.67
2022-11-23T02:56:55.019Z,22.70
2022-11-23T02:59:24.652Z,28.00
2022-11-23T03:01:55.256Z,21.43
2022-11-23T03:04:27.868Z,21.53
2022-11-23T03:06:57.400Z,25.47
2022-11-23T03:09:28.150Z,24.83
2022-11-23T03:11:58.678Z,24.43
2022-11-23T03:14:29.805Z,26.07
2022-11-23T03:17:01.866Z,23.87
2022-11-23T03:19:36.314Z,27.17
2022-11-23T03:22:05.822Z,24.60
2022-11-23T03:24:35.127Z,25.57
2022-11-23T03:27:07.808Z,23.27
2022-11-23T03:29:37.107Z,26.43
2022-11-23T03:32:12.818Z,21.00
2022-11-23T03:34:45.119Z,25.07
2022-11-23T03:37:14.317Z,20.20
2022-11-23T03:39:47.362Z,23.50
2022-11-23T03:42:36.678Z,25.43
2022-11-23T03:45:06.677Z,23.87
2022-11-23T03:47:36.129Z,21.87
2022-11-23T03:50:05.604Z,21.03
2022-11-23T03:52:34.969Z,30.47
2022-11-23T03:55:04.368Z,22.27
2022-11-23T03:57:33.525Z,20.20
2022-11-23T04:00:08.388Z,23.63
2022-11-23T04:02:42.557Z,22.87
2022-11-23T04:05:31.563Z,25.03
2022-11-23T04:08:19.119Z,21.63
2022-11-23T04:10:49.096Z,20.57
2022-11-23T04:13:23.756Z,22.63
2022-11-23T04:15:54.344Z,20.27
2022-11-23T04:18:23.406Z,25.30
2022-11-23T04:20:52.564Z,22.27
2022-11-23T04:23:21.795Z,26.10
2022-11-23T04:25:52.373Z,19.83
2022-11-23T04:28:22.090Z,23.60
2022-11-23T04:30:53.262Z,17.67
2022-11-23T04:33:22.397Z,21.87
2022-11-23T04:35:52.422Z,25.80
2022-11-23T04:38:22.001Z,19.83
2022-11-23T04:40:51.105Z,24.63
2022-11-23T04:43:20.166Z,26.43
2022-11-23T04:45:50.468Z,22.60
2022-11-23T04:48:27.497Z,21.97
2022-11-23T04:50:58.401Z,20.83
2022-11-23T04:53:34.200Z,25.60
2022-11-23T04:56:04.389Z,22.70
2022-11-23T04:58:38.456Z,20.20
2022-11-23T05:01:08.762Z,22.53
2022-11-23T05:03:48.169Z,23.33
2022-11-23T05:06:17.787Z,19.97
2022-11-23T05:08:48.461Z,21.50
2022-11-23T05:11:35.210Z,21.40
2022-11-23T05:14:05.158Z,21.23
2022-11-23T05:16:34.639Z,18.73
2022-11-23T05:19:05.357Z,26.83
2022-11-23T05:21:35.532Z,18.70
2022-11-23T05:24:05.324Z,22.60
2022-11-23T05:26:34.667Z,23.83
2022-11-23T05:29:03.745Z,21.00
2022-11-23T05:31:33.719Z,24.17
2022-11-23T05:34:04.608Z,19.97
2022-11-23T05:36:42.520Z,17.83
2022-11-23T05:39:12.462Z,13.97
2022-11-23T05:41:42.011Z,19.97
2022-11-23T05:44:24.714Z,21.47
2022-11-23T05:46:53.791Z,21.23
2022-11-23T05:49:25.143Z,17.67
2022-11-23T05:51:54.260Z,19.67
2022-11-23T05:54:23.608Z,21.63
2022-11-23T05:57:07.360Z,23.53
2022-11-23T05:59:43.148Z,18.30
2022-11-23T06:02:19.160Z,19.33
2022-11-23T06:04:54.203Z,18.50
2022-11-23T06:07:33.610Z,18.43
2022-11-23T06:10:09.845Z,17.73
2022-11-23T06:12:43.284Z,15.50
2022-11-23T06:15:16.110Z,14.53
2022-11-23T06:17:46.486Z,18.03
2022-11-23T06:20:21.701Z,13.90
2022-11-23T06:22:58.964Z,17.40
2022-11-23T06:25:28.608Z,17.80
2022-11-23T06:28:03.179Z,16.77
2022-11-23T06:30:40.447Z,23.67
2022-11-23T06:33:10.292Z,15.93
2022-11-23T06:35:56.906Z,19.23
2022-11-23T06:38:29.812Z,15.90
2022-11-23T06:41:04.861Z,12.83
2022-11-23T06:43:34.138Z,18.53
2022-11-23T06:46:06.805Z,17.80
2022-11-23T06:48:39.600Z,15.00
2022-11-23T06:51:11.301Z,17.20
2022-11-23T06:53:40.708Z,20.03
2022-11-23T06:56:11.496Z,14.73
2022-11-23T06:58:41.178Z,14.90
2022-11-23T07:01:14.467Z,18.37
2022-11-23T07:03:50.147Z,16.67
2022-11-23T07:06:27.683Z,19.50
2022-11-23T07:09:00.285Z,14.77
2022-11-23T07:11:47.931Z,15.60
2022-11-23T07:14:18.411Z,22.10
2022-11-23T07:16:50.065Z,22.37
2022-11-23T07:19:19.922Z,15.60
2022-11-23T07:21:51.782Z,15.50
2022-11-23T07:24:20.842Z,16.57
2022-11-23T07:26:49.921Z,14.83
2022-11-23T07:29:19.003Z,19.80
2022-11-23T07:31:48.120Z,15.10
2022-11-23T07:34:17.399Z,17.73
2022-11-23T07:36:46.504Z,17.13
2022-11-23T07:39:16.909Z,16.27
2022-11-23T07:41:46.744Z,20.17
2022-11-23T07:44:23.122Z,16.27
2022-11-23T07:46:54.981Z,15.03
2022-11-23T07:49:24.016Z,17.83
2022-11-23T07:51:54.218Z,18.63
2022-11-23T07:54:24.710Z,15.20
2022-11-23T07:56:53.733Z,15.83
2022-11-23T07:59:22.801Z,16.20
2022-11-23T08:01:57.085Z,17.13
2022-11-23T08:04:27.662Z,15.77
2022-11-23T08:06:56.727Z,15.23
2022-11-23T08:09:27.137Z,17.33
2022-11-23T08:11:56.188Z,16.77
2022-11-23T08:14:25.445Z,17.70
2022-11-23T08:16:54.532Z,19.00
2022-11-23T08:19:23.820Z,14.00
2022-11-23T08:21:52.887Z,13.97
2022-11-23T08:24:22.344Z,14.37
2022-11-23T08:26:52.816Z,13.30
2022-11-23T08:29:22.216Z,16.37
2022-11-23T08:31:51.959Z,15.07
2022-11-23T08:34:21.023Z,11.30
2022-11-23T08:36:50.049Z,14.67
2022-11-23T08:39:19.339Z,13.63
2022-11-23T08:41:48.772Z,14.30
2022-11-23T08:44:19.244Z,16.77
2022-11-23T08:46:48.436Z,15.33
2022-11-23T08:49:17.565Z,13.60
2022-11-23T08:51:50.047Z,13.40
2022-11-23T08:54:19.578Z,15.23
2022-11-23T08:56:48.599Z,16.80
2022-11-23T08:59:20.211Z,13.67
2022-11-23T09:01:49.338Z,14.10
2022-11-23T09:04:31.641Z,9.97
2022-11-23T09:07:00.695Z,13.00
2022-11-23T09:09:29.721Z,11.97
2022-11-23T09:11:59.117Z,17.27
2022-11-23T09:14:30.082Z,14.47
2022-11-23T09:17:01.371Z,12.77
2022-11-23T09:19:30.558Z,12.00
2022-11-23T09:21:59.576Z,16.13
2022-11-23T09:24:28.658Z,12.93
2022-11-23T09:26:58.368Z,21.20
2022-11-23T09:29:28.757Z,8.97
2022-11-23T09:31:57.781Z,10.03
2022-11-23T09:34:26.935Z,11.97
2022-11-23T09:36:58.829Z,9.73
2022-11-23T09:39:27.935Z,15.87
2022-11-23T09:42:14.729Z,11.80
2022-11-23T09:45:03.202Z,10.97
2022-11-23T09:47:51.632Z,7.97
2022-11-23T09:50:28.690Z,9.40
2022-11-23T09:52:57.844Z,11.67
2022-11-23T09:55:35.236Z,8.37
2022-11-23T09:58:06.869Z,8.33
2022-11-23T10:00:42.108Z,12.30
2022-11-23T10:03:16.000Z,15.47
2022-11-23T10:05:50.940Z,11.53
2022-11-23T10:08:30.739Z,10.43
2022-11-23T10:11:08.523Z,6.30
2022-11-23T10:13:44.743Z,8.77
2022-11-23T10:16:30.555Z,9.33
2022-11-23T10:19:07.612Z,7.20
2022-11-23T10:21:45.988Z,11.50
2022-11-23T10:24:21.648Z,9.80
2022-11-23T10:26:51.661Z,7.90
2022-11-23T10:29:28.300Z,8.87
2022-11-23T10:32:00.784Z,12.67
2022-11-23T10:34:50.037Z,15.70
2022-11-23T10:37:19.854Z,10.30
2022-11-23T10:39:49.001Z,6.73
2022-11-23T10:42:23.727Z,14.60
2022-11-23T10:44:56.279Z,9.03
2022-11-23T10:47:39.069Z,11.07
2022-11-23T10:50:24.622Z,8.80
2022-11-23T10:52:56.188Z,9.67
2022-11-23T10:55:31.326Z,10.30
2022-11-23T10:58:01.123Z,10.83
2022-11-23T11:00:31.693Z,7.03
2022-11-23T11:03:19.607Z,7.93
2022-11-23T11:06:09.057Z,8.70
2022-11-23T11:08:51.406Z,8.83
2022-11-23T11:11:29.424Z,8.03
2022-11-23T11:14:07.394Z,9.40
2022-11-23T11:16:38.175Z,8.03
2022-11-23T11:19:27.244Z,7.17
2022-11-23T11:21:56.851Z,8.37
2022-11-23T11:24:32.309Z,5.77
2022-11-23T11:27:04.553Z,7.30
2022-11-23T11:29:39.240Z,5.73
2022-11-23T11:32:12.596Z,7.73
2022-11-23T11:34:48.830Z,4.40
2022-11-23T11:37:28.632Z,4.43
2022-11-23T11:40:04.282Z,5.13
2022-11-23T11:42:38.024Z,7.90
2022-11-23T11:45:14.921Z,6.00
2022-11-23T11:47:50.135Z,8.60
2022-11-23T11:50:30.016Z,9.73
2022-11-23T11:53:07.197Z,8.43
2022-11-23T11:55:49.392Z,5.90
2022-11-23T11:58:19.177Z,9.27
2022-11-23T12:00:51.691Z,5.70
2022-11-23T12:03:30.605Z,5.30
2022-11-23T12:06:06.874Z,9.60
2022-11-23T12:08:44.695Z,7.17
2022-11-23T12:11:14.395Z,8.23
2022-11-23T12:13:46.845Z,10.07
2022-11-23T12:16:27.625Z,9.37
2022-11-23T12:19:15.379Z,8.10
2022-11-23T12:22:27.476Z,9.73
2022-11-23T12:25:11.482Z,6.47
2022-11-23T12:27:53.205Z,7.37
2022-11-23T12:30:26.158Z,8.60
2022-11-23T12:33:34.234Z,7.23
2022-11-23T12:36:27.116Z,11.20
2022-11-23T12:39:08.024Z,7.80
2022-11-23T12:41:47.309Z,6.10
2022-11-23T12:44:44.786Z,13.37
2022-11-23T12:47:23.761Z,8.00
2022-11-23T12:50:00.529Z,9.53
2022-11-23T12:52:42.098Z,6.47
2022-11-23T12:55:21.237Z,8.47
2022-11-23T12:57:56.201Z,6.33
2022-11-23T13:00:27.048Z,6.43
2022-11-23T13:03:50.553Z,5.87
2022-11-23T13:07:20.752Z,4.67
2022-11-23T13:10:07.374Z,7.30
2022-11-23T13:12:57.416Z,8.87
2022-11-23T13:15:44.755Z,10.03
2022-11-23T13:18:21.713Z,6.20
2022-11-23T13:21:13.286Z,7.37
2022-11-23T13:23:42.527Z,7.27
2022-11-23T13:26:16.342Z,8.93
2022-11-23T13:28:48.605Z,8.47
2022-11-23T13:31:27.640Z,6.77
2022-11-23T13:33:58.594Z,7.30
2022-11-23T13:37:11.838Z,9.80
2022-11-23T13:39:55.873Z,6.20
2022-11-23T13:42:27.669Z,9.50
2022-11-23T13:45:21.982Z,5.13
2022-11-23T13:48:07.311Z,7.47
2022-11-23T13:50:36.965Z,6.47
2022-11-23T13:53:19.905Z,5.57
2022-11-23T13:55:49.283Z,8.63
2022-11-23T13:58:40.971Z,7.57
2022-11-23T14:01:12.086Z,7.97
2022-11-23T14:04:19.827Z,4.73
2022-11-23T14:06:52.399Z,4.30
2022-11-23T14:09:26.498Z,3.30
2022-11-23T14:12:06.678Z,7.53
2022-11-23T14:14:50.800Z,5.50
2022-11-23T14:17:48.075Z,6.10
2022-11-23T14:20:39.945Z,4.37
2022-11-23T14:23:35.439Z,4.17
2022-11-23T14:26:22.737Z,5.50
2022-11-23T14:29:07.566Z,7.07
2022-11-23T14:31:46.608Z,5.93
2022-11-23T14:34:31.489Z,9.57
2022-11-23T14:37:09.214Z,6.67
2022-11-23T14:39:57.941Z,4.20
2022-11-23T14:42:29.116Z,6.63
2022-11-23T14:45:02.514Z,5.07
2022-11-23T14:47:33.008Z,4.33
2022-11-23T14:50:03.562Z,9.67
2022-11-23T14:52:36.259Z,5.13
2022-11-23T14:55:07.625Z,5.30
2022-11-23T14:57:43.043Z,16.67
2022-11-23T15:00:28.351Z,6.63
2022-11-23T15:03:00.431Z,5.50
2022-11-23T15:05:33.540Z,8.27
2022-11-23T15:08:06.948Z,6.73
2022-11-23T15:10:44.278Z,11.07
2022-11-23T15:13:22.689Z,8.83
2022-11-23T15:15:54.875Z,8.13
2022-11-23T15:18:31.895Z,5.87
2022-11-23T15:21:05.164Z,9.20
2022-11-23T15:23:39.778Z,8.40
2022-11-23T15:26:34.628Z,11.13
2022-11-23T15:29:05.195Z,4.83
2022-11-23T15:31:36.530Z,8.63
2022-11-23T15:34:13.990Z,4.53
2022-11-23T15:36:45.453Z,8.33
2022-11-23T15:39:19.341Z,6.40
2022-11-23T15:41:48.764Z,7.33
2022-11-23T15:44:23.381Z,8.87
2022-11-23T15:46:56.477Z,6.47
2022-11-23T15:49:25.804Z,5.07
2022-11-23T15:52:01.432Z,7.10
2022-11-23T15:54:38.428Z,7.73
2022-11-23T15:57:11.245Z,5.60
2022-11-23T15:59:44.121Z,12.47
2022-11-23T16:02:17.642Z,10.73
2022-11-23T16:04:47.010Z,10.07
2022-11-23T16:07:22.673Z,6.63
2022-11-23T16:10:04.345Z,6.70
2022-11-23T16:12:35.498Z,10.43
2022-11-23T16:15:33.653Z,7.10
2022-11-23T16:18:03.308Z,12.23
2022-11-23T16:20:33.372Z,10.17
2022-11-23T16:23:05.223Z,9.27
2022-11-23T16:25:35.502Z,9.33
2022-11-23T16:28:06.754Z,10.53
2022-11-23T16:30:38.486Z,12.83
2022-11-23T16:33:14.148Z,10.87
2022-11-23T16:35:43.512Z,15.40
2022-11-23T16:38:13.989Z,9.60
2022-11-23T16:40:43.870Z,9.03
2022-11-23T16:43:14.201Z,8.37
2022-11-23T16:45:46.592Z,9.60
2022-11-23T16:48:42.013Z,8.87
2022-11-23T16:51:14.320Z,13.97
2022-11-23T16:54:12.486Z,7.73
2022-11-23T16:56:36.331Z,11.90
2022-11-23T16:59:05.439Z,11.27
2022-11-23T17:01:40.106Z,9.77
2022-11-23T17:04:10.624Z,7.10
2022-11-23T17:06:41.045Z,11.73
2022-11-23T17:09:11.638Z,11.07
2022-11-23T17:11:43.268Z,9.67
2022-11-23T17:14:18.915Z,9.23
2022-11-23T17:16:48.622Z,6.70
2022-11-23T17:19:20.293Z,13.70
2022-11-23T17:21:49.358Z,10.00
2022-11-23T17:24:19.837Z,9.10
2022-11-23T17:26:52.643Z,9.27
2022-11-23T17:29:22.345Z,10.43
2022-11-23T17:31:52.415Z,7.63
2022-11-23T17:34:21.464Z,10.60
2022-11-23T17:36:53.034Z,10.03
2022-11-23T17:39:26.163Z,8.40
2022-11-23T17:42:01.587Z,8.07
2022-11-23T17:44:33.722Z,13.70
2022-11-23T17:47:03.256Z,9.77
2022-11-23T17:49:33.412Z,12.80
2022-11-23T17:52:02.992Z,10.43
2022-11-23T17:54:33.409Z,9.10
2022-11-23T17:57:02.544Z,14.40
2022-11-23T17:59:32.438Z,10.23
2022-11-23T18:02:01.775Z,7.30
2022-11-23T18:04:31.084Z,9.67
2022-11-23T18:07:00.244Z,10.27
2022-11-23T18:09:29.335Z,8.80
2022-11-23T18:11:59.904Z,11.97
2022-11-23T18:14:29.032Z,8.70
2022-11-23T18:16:58.177Z,13.90
2022-11-23T18:19:27.673Z,9.87
2022-11-23T18:21:57.239Z,9.10
2022-11-23T18:24:26.402Z,8.43
2022-11-23T18:26:55.457Z,12.17
2022-11-23T18:29:26.001Z,14.77
2022-11-23T18:31:55.375Z,12.23
2022-11-23T18:34:24.666Z,12.57
2022-11-23T18:36:53.937Z,9.43
2022-11-23T18:39:23.510Z,16.37
2022-11-23T18:41:52.585Z,10.07
2022-11-23T18:44:21.910Z,11.07
2022-11-23T18:46:52.554Z,8.27
2022-11-23T18:49:22.544Z,15.40
2022-11-23T18:51:51.857Z,11.73
2022-11-23T18:54:21.338Z,10.80
2022-11-23T18:56:50.428Z,8.53
2022-11-23T18:59:42.475Z,8.77
2022-11-23T19:02:12.427Z,11.57
2022-11-23T19:04:41.497Z,9.27
2022-11-23T19:07:10.790Z,8.03
2022-11-23T19:09:39.888Z,11.57
2022-11-23T19:12:09.754Z,8.90
2022-11-23T19:14:38.877Z,12.53
2022-11-23T19:17:08.013Z,9.73
2022-11-23T19:19:38.628Z,13.43
2022-11-23T19:22:07.692Z,11.67
2022-11-23T19:24:36.755Z,11.17
2022-11-23T19:27:05.831Z,9.10
2022-11-23T19:29:35.181Z,15.13
2022-11-23T19:32:04.497Z,11.17
2022-11-23T19:34:33.776Z,7.73
2022-11-23T19:37:04.234Z,15.00
2022-11-23T19:39:33.689Z,14.97
2022-11-23T19:42:03.602Z,8.50
2022-11-23T19:44:32.699Z,9.90
2022-11-23T19:47:02.911Z,8.10
2022-11-23T19:49:33.747Z,12.13
2022-11-23T19:52:05.216Z,7.33
2022-11-23T19:54:34.589Z,8.63
2022-11-23T19:57:03.678Z,10.30
2022-11-23T19:59:33.465Z,9.23
2022-11-23T20:02:02.776Z,11.47
2022-11-23T20:04:32.286Z,14.27
2022-11-23T20:07:02.804Z,10.60
2022-11-23T20:09:32.044Z,8.57
2022-11-23T20:12:01.402Z,12.80
2022-11-23T20:14:30.426Z,15.63
2022-11-23T20:16:59.497Z,11.63
2022-11-23T20:19:28.555Z,8.97
2022-11-23T20:21:58.402Z,10.17
2022-11-23T20:24:28.905Z,11.10
2022-11-23T20:26:57.997Z,16.90
2022-11-23T20:29:27.889Z,9.03
2022-11-23T20:31:57.031Z,10.93
2022-11-23T20:34:26.474Z,12.20
2022-11-23T20:36:55.793Z,10.93
2022-11-23T20:39:24.933Z,20.17
2022-11-23T20:41:55.436Z,8.27
2022-11-23T20:44:29.560Z,10.07
2022-11-23T20:47:03.497Z,10.40
2022-11-23T20:49:32.982Z,14.13
2022-11-23T20:52:02.790Z,12.87
2022-11-23T20:54:32.501Z,9.23
2022-11-23T20:57:03.709Z,12.97
2022-11-23T20:59:32.866Z,13.43
2022-11-23T21:02:02.156Z,15.37
2022-11-23T21:04:31.496Z,11.87
2022-11-23T21:07:00.742Z,9.10
2022-11-23T21:09:29.871Z,14.83
2022-11-23T21:12:16.320Z,12.07
2022-11-23T21:14:46.893Z,13.00
2022-11-23T21:17:15.917Z,9.27
2022-11-23T21:19:45.001Z,12.57
2022-11-23T21:22:16.471Z,12.13
2022-11-23T21:24:45.532Z,13.63
2022-11-23T21:27:16.165Z,14.70
2022-11-23T21:29:46.645Z,12.60
2022-11-23T21:32:15.725Z,10.87
2022-11-23T21:34:44.962Z,8.83
2022-11-23T21:37:14.349Z,12.03
2022-11-23T21:39:47.997Z,11.17
2022-11-23T21:42:20.320Z,14.80
2022-11-23T21:44:50.811Z,9.57
2022-11-23T21:47:19.908Z,8.17
2022-11-23T21:49:48.958Z,9.60
2022-11-23T21:52:18.060Z,9.90
2022-11-23T21:54:49.124Z,10.33
2022-11-23T21:57:18.393Z,9.33
2022-11-23T21:59:47.551Z,11.17
2022-11-23T22:02:18.279Z,8.53
2022-11-23T22:04:47.607Z,8.50
2022-11-23T22:07:16.951Z,8.50
2022-11-23T22:09:46.214Z,11.60
2022-11-23T22:12:15.477Z,9.20
2022-11-23T22:14:44.707Z,11.07
2022-11-23T22:17:13.901Z,10.00
2022-11-23T22:19:44.535Z,9.63
2022-11-23T22:22:13.803Z,7.30
2022-11-23T22:24:43.068Z,12.93
2022-11-23T22:27:12.320Z,8.57
2022-11-23T22:29:41.554Z,9.20
2022-11-23T22:32:10.779Z,11.67
2022-11-23T22:34:40.388Z,6.83
2022-11-23T22:37:11.232Z,10.50
2022-11-23T22:39:40.523Z,7.93
2022-11-23T22:42:10.132Z,9.67
2022-11-23T22:44:39.476Z,9.03
2022-11-23T22:47:08.727Z,7.83
2022-11-23T22:49:38.179Z,7.20
2022-11-23T22:52:07.491Z,7.27
2022-11-23T22:54:38.422Z,9.73
2022-11-23T22:57:07.655Z,13.33
2022-11-23T22:59:36.916Z,8.30
2022-11-23T23:02:07.358Z,5.43
2022-11-23T23:04:36.647Z,8.17
2022-11-23T23:07:05.886Z,5.37
2022-11-23T23:09:35.152Z,13.50
2022-11-23T23:12:06.278Z,9.17
2022-11-23T23:14:36.863Z,13.07
2022-11-23T23:17:06.159Z,11.13
2022-11-23T23:19:35.540Z,7.77
2022-11-23T23:22:04.793Z,14.40
2022-11-23T23:24:34.372Z,8.17
2022-11-23T23:27:05.359Z,7.90
2022-11-23T23:29:34.627Z,9.57
2022-11-23T23:32:03.916Z,7.90
2022-11-23T23:34:33.372Z,8.70
2022-11-23T23:37:02.698Z,6.97
2022-11-23T23:39:31.915Z,6.27
2022-11-23T23:42:01.205Z,8.47
2022-11-23T23:44:32.059Z,8.30
2022-11-23T23:47:01.463Z,9.17
2022-11-23T23:49:31.557Z,8.63
2022-11-23T23:52:00.779Z,9.23
2022-11-23T23:54:30.006Z,7.40
2022-11-23T23:56:59.226Z,9.07
2022-11-23T23:59:28.511Z,8.73
